Burntsand — CFK9232 — position and weather

sailwx.info

Track history (hours):
 
Tides and Currents Weather Stations Pressure Air Temp Water Temp Dewpoint Dewpoint Depression Visibility Wind Speed Wind Dir Waves Ship Positions

Burntsand

Last reported at 2017-Oct-21 21:06 UTC. Time now 2017-Dec-12 08:35 UTC.
Position N 32°48' W 117°21'.
Warning: this ship's position is 51 days out of date.

Length 19 m; draft 2 m.

Type: Pleasure craft. MMSI: 316010143.

Date/timePositionNaut miles runAvg speedWind from/ knotsBaromVisibWave heightAir tempDewpointWater temp
2017-Oct-21 21:06N 32°48' W 117°21'1 9.8
2017-Oct-21 21:00N 32°49' W 117°21'5 9.5
2017-Oct-21 20:30N 32°53' W 117°23'5 9.9
2017-Oct-21 20:00N 32°57' W 117°26'5 9.9
2017-Oct-21 19:30N 33°02' W 117°28'5 9.8
2017-Oct-21 19:00N 33°06' W 117°31'5 9.6
2017-Oct-21 18:30N 33°11' W 117°33'5 9.6
2017-Oct-21 17:56N 33°16' W 117°36'4 9.5
2017-Oct-21 17:30N 33°20' W 117°38'  
Track history (hours):
 
Tides and Currents Weather Stations Pressure Air Temp Water Temp Dewpoint Dewpoint Depression Visibility Wind Speed Wind Dir Waves Ship Positions

Burntsand

Last reported at 2017-Oct-21 21:06 UTC. Time now 2017-Dec-12 08:35 UTC.
Position N 32°48' W 117°21'.
Warning: this ship's position is 51 days out of date.

Length 19 m; draft 2 m.

Type: Pleasure craft. MMSI: 316010143.

Date/timePositionNaut miles runAvg speedWind from/ knotsBaromVisibWave heightAir tempDewpointWater temp
2017-Oct-21 21:06N 32°48' W 117°21'1 9.8
2017-Oct-21 21:00N 32°49' W 117°21'5 9.5
2017-Oct-21 20:30N 32°53' W 117°23'5 9.9
2017-Oct-21 20:00N 32°57' W 117°26'5 9.9
2017-Oct-21 19:30N 33°02' W 117°28'5 9.8
2017-Oct-21 19:00N 33°06' W 117°31'5 9.6
2017-Oct-21 18:30N 33°11' W 117°33'5 9.6
2017-Oct-21 17:56N 33°16' W 117°36'4 9.5
2017-Oct-21 17:30N 33°20' W 117°38'  

Dump ship's entire track history